Navios Symphony — 3FOA2 — position and weather

sailwx.info

Track history (hours):
 
Tides and Currents Weather Stations Pressure Air Temp Water Temp Dewpoint Dewpoint Depression Visibility Wind Speed Wind Dir Waves Ship Positions

Navios Symphony

Last reported at 2018-Jul-04 09:38 UTC. Time now 2018-Jul-17 13:22 UTC.
Position S 34°42' E 018°47'.
Warning: this ship's position is 13 days out of date.

Length 292 m; draft 18.2 m.

Type: Cargo ship. MMSI: 372859000.

Date/timePositionNaut miles runAvg speedWind from/ knotsBaromVisibWave heightAir tempDewpointWater temp
2018-Jul-04 09:38S 34°42' E 018°47'4 9.7
2018-Jul-04 09:16S 34°40' E 018°43'3 9.8
2018-Jul-04 09:00S 34°39' E 018°40'5 9.8
2018-Jul-04 08:31S 34°37' E 018°35'5 9.3
2018-Jul-04 07:59S 34°35' E 018°30'5 9.1
2018-Jul-04 07:28S 34°32' E 018°25'4 9.2
2018-Jul-04 07:00S 34°30' E 018°21'5 9.1
2018-Jul-04 06:30S 34°28' E 018°16'4 9.1
2018-Jul-04 06:00S 34°25' E 018°11'5 9.0
2018-Jul-04 05:30S 34°22' E 018°07'5 9.4
2018-Jul-04 05:00S 34°19' E 018°03'5 9.4
2018-Jul-04 04:31S 34°15' E 017°59'5 9.4
2018-Jul-04 04:00S 34°12' E 017°56'5 9.3
2018-Jul-04 03:30S 34°08' E 017°52'5 9.1
2018-Jul-04 03:00S 34°05' E 017°49'4 8.8
2018-Jul-04 02:30S 34°01' E 017°45'5 8.8
2018-Jul-04 01:57S 33°58' E 017°42'6 8.9
2018-Jul-04 01:18S 33°53' E 017°37'  
Track history (hours):
 
Tides and Currents Weather Stations Pressure Air Temp Water Temp Dewpoint Dewpoint Depression Visibility Wind Speed Wind Dir Waves Ship Positions

Navios Symphony

Last reported at 2018-Jul-04 09:38 UTC. Time now 2018-Jul-17 13:22 UTC.
Position S 34°42' E 018°47'.
Warning: this ship's position is 13 days out of date.

Length 292 m; draft 18.2 m.

Type: Cargo ship. MMSI: 372859000.

Date/timePositionNaut miles runAvg speedWind from/ knotsBaromVisibWave heightAir tempDewpointWater temp
2018-Jul-04 09:38S 34°42' E 018°47'4 9.7
2018-Jul-04 09:16S 34°40' E 018°43'3 9.8
2018-Jul-04 09:00S 34°39' E 018°40'5 9.8
2018-Jul-04 08:31S 34°37' E 018°35'5 9.3
2018-Jul-04 07:59S 34°35' E 018°30'5 9.1
2018-Jul-04 07:28S 34°32' E 018°25'4 9.2
2018-Jul-04 07:00S 34°30' E 018°21'5 9.1
2018-Jul-04 06:30S 34°28' E 018°16'4 9.1
2018-Jul-04 06:00S 34°25' E 018°11'5 9.0
2018-Jul-04 05:30S 34°22' E 018°07'5 9.4
2018-Jul-04 05:00S 34°19' E 018°03'5 9.4
2018-Jul-04 04:31S 34°15' E 017°59'5 9.4
2018-Jul-04 04:00S 34°12' E 017°56'5 9.3
2018-Jul-04 03:30S 34°08' E 017°52'5 9.1
2018-Jul-04 03:00S 34°05' E 017°49'4 8.8
2018-Jul-04 02:30S 34°01' E 017°45'5 8.8
2018-Jul-04 01:57S 33°58' E 017°42'6 8.9
2018-Jul-04 01:18S 33°53' E 017°37'  

Dump ship's entire track history